createdAt,value
2018-05-29T00:00:11.099Z,90
2018-05-29T00:00:23.572Z,90
2018-05-29T00:00:36.022Z,90
2018-05-29T00:00:48.474Z,89
2018-05-29T00:01:00.906Z,89
2018-05-29T00:01:13.369Z,89
2018-05-29T00:01:25.829Z,89
2018-05-29T00:01:38.262Z,109
2018-05-29T00:01:50.697Z,95
2018-05-29T00:02:03.134Z,85
2018-05-29T00:02:15.579Z,86
2018-05-29T00:02:27.997Z,86
2018-05-29T00:02:40.418Z,86
2018-05-29T00:02:52.833Z,86
2018-05-29T00:03:05.272Z,61
2018-05-29T00:03:17.677Z,61
2018-05-29T00:03:30.093Z,44
2018-05-29T00:03:42.500Z,88
2018-05-29T00:03:54.921Z,96
2018-05-29T00:04:07.349Z,98
2018-05-29T00:04:19.807Z,98
2018-05-29T00:04:32.263Z,98
2018-05-29T00:04:44.700Z,98
2018-05-29T00:04:57.128Z,98
2018-05-29T00:05:09.587Z,98
2018-05-29T00:05:22.037Z,94
2018-05-29T00:05:34.467Z,95
2018-05-29T00:05:46.933Z,93
2018-05-29T00:05:59.351Z,96
2018-05-29T00:06:11.834Z,101
2018-05-29T00:06:24.319Z,89
2018-05-29T00:06:36.750Z,80
2018-05-29T00:06:49.150Z,80
2018-05-29T00:07:01.680Z,82
2018-05-29T00:07:14.129Z,82
2018-05-29T00:07:26.599Z,82
2018-05-29T00:07:39.000Z,82
2018-05-29T00:07:51.457Z,32
2018-05-29T00:08:03.886Z,51
2018-05-29T00:08:16.311Z,53
2018-05-29T00:08:28.776Z,53
2018-05-29T00:08:41.175Z,53
2018-05-29T00:08:53.595Z,53
2018-05-29T00:09:06.021Z,53
2018-05-29T00:09:18.452Z,53
2018-05-29T00:09:30.856Z,53
2018-05-29T00:09:43.271Z,53
2018-05-29T00:09:55.706Z,53
2018-05-29T00:10:08.149Z,53
2018-05-29T00:10:20.567Z,83
2018-05-29T00:10:32.972Z,71
2018-05-29T00:10:45.405Z,47
2018-05-29T00:10:57.844Z,67
2018-05-29T00:11:10.277Z,67
2018-05-29T00:11:22.699Z,67
2018-05-29T00:11:35.137Z,69
2018-05-29T00:11:47.578Z,69
2018-05-29T00:12:00.057Z,22
2018-05-29T00:12:12.490Z,43
2018-05-29T00:12:24.924Z,67
2018-05-29T00:12:37.359Z,92
2018-05-29T00:12:49.768Z,88
2018-05-29T00:13:02.179Z,89
2018-05-29T00:13:14.616Z,89
2018-05-29T00:13:27.031Z,63
2018-05-29T00:13:39.459Z,63
2018-05-29T00:13:52.169Z,70
2018-05-29T00:14:04.596Z,76
2018-05-29T00:14:17.096Z,67
2018-05-29T00:14:29.530Z,18
2018-05-29T00:14:41.973Z,18
2018-05-29T00:14:54.404Z,18
2018-05-29T00:15:06.850Z,23
2018-05-29T00:15:19.301Z,40
2018-05-29T00:15:31.720Z,40
2018-05-29T00:15:44.139Z,40
2018-05-29T00:15:56.578Z,40
2018-05-29T00:16:08.998Z,40
2018-05-29T00:16:21.434Z,40
2018-05-29T00:16:33.857Z,40
2018-05-29T00:16:46.269Z,95
2018-05-29T00:16:58.732Z,87
2018-05-29T00:17:11.188Z,55
2018-05-29T00:17:23.603Z,55
2018-05-29T00:17:36.032Z,123
2018-05-29T00:17:48.455Z,91
2018-05-29T00:18:01.233Z,113
2018-05-29T00:18:13.811Z,85
2018-05-29T00:18:26.258Z,63
2018-05-29T00:18:38.751Z,61
2018-05-29T00:18:51.190Z,65
2018-05-29T00:19:03.617Z,65
2018-05-29T00:19:16.044Z,63
2018-05-29T00:19:28.491Z,92
2018-05-29T00:19:40.918Z,84
2018-05-29T00:19:53.327Z,78
2018-05-29T00:20:05.820Z,61
2018-05-29T00:20:18.254Z,61
2018-05-29T00:20:30.670Z,80
2018-05-29T00:20:43.088Z,83
2018-05-29T00:20:55.509Z,83
2018-05-29T00:21:07.951Z,82
2018-05-29T00:21:20.370Z,83
2018-05-29T00:21:32.774Z,38
2018-05-29T00:21:45.175Z,53
2018-05-29T00:21:57.638Z,55
2018-05-29T00:22:10.074Z,54
2018-05-29T00:22:22.478Z,54
2018-05-29T00:22:34.894Z,54
2018-05-29T00:22:47.328Z,54
2018-05-29T00:22:59.744Z,54
2018-05-29T00:23:12.224Z,55
2018-05-29T00:23:24.626Z,59
2018-05-29T00:23:37.023Z,60
2018-05-29T00:23:49.433Z,60
2018-05-29T00:24:01.861Z,60
2018-05-29T00:24:14.287Z,60
2018-05-29T00:24:26.724Z,69
2018-05-29T00:24:39.172Z,83
2018-05-29T00:24:51.594Z,82
2018-05-29T00:25:04.038Z,82
2018-05-29T00:25:16.460Z,82
2018-05-29T00:25:28.983Z,67
2018-05-29T00:25:41.433Z,102
2018-05-29T00:25:53.868Z,101
2018-05-29T00:26:06.317Z,108
2018-05-29T00:26:18.754Z,92
2018-05-29T00:26:31.177Z,92
2018-05-29T00:26:43.611Z,76
2018-05-29T00:26:56.039Z,75
2018-05-29T00:27:08.464Z,77
2018-05-29T00:27:20.873Z,77
2018-05-29T00:27:33.294Z,77
2018-05-29T00:27:45.727Z,119
2018-05-29T00:27:58.157Z,92
2018-05-29T00:28:10.587Z,53
2018-05-29T00:28:23.168Z,64
2018-05-29T00:28:35.593Z,85
2018-05-29T00:28:48.001Z,78
2018-05-29T00:29:00.416Z,93
2018-05-29T00:29:12.849Z,103
2018-05-29T00:29:25.296Z,107
2018-05-29T00:29:37.725Z,98
2018-05-29T00:29:50.159Z,76
2018-05-29T00:30:02.572Z,77
2018-05-29T00:30:15.033Z,77
2018-05-29T00:30:27.462Z,105
2018-05-29T00:30:39.931Z,107
2018-05-29T00:30:52.348Z,88
2018-05-29T00:31:04.787Z,69
2018-05-29T00:31:17.194Z,85
2018-05-29T00:31:29.617Z,128
2018-05-29T00:31:42.031Z,161
2018-05-29T00:31:54.442Z,140
2018-05-29T00:32:06.887Z,140
2018-05-29T00:32:19.316Z,150
2018-05-29T00:32:31.760Z,66
2018-05-29T00:32:44.194Z,53
2018-05-29T00:32:56.782Z,88
2018-05-29T00:33:09.233Z,77
2018-05-29T00:33:21.645Z,55
2018-05-29T00:33:34.057Z,102
2018-05-29T00:33:46.483Z,69
2018-05-29T00:33:58.896Z,97
2018-05-29T00:34:11.323Z,110
2018-05-29T00:34:23.753Z,102
2018-05-29T00:34:36.226Z,83
2018-05-29T00:34:48.631Z,76
2018-05-29T00:35:01.062Z,56
2018-05-29T00:35:13.681Z,138
2018-05-29T00:35:26.102Z,134
2018-05-29T00:35:38.522Z,133
2018-05-29T00:35:50.947Z,124
2018-05-29T00:36:03.374Z,124
2018-05-29T00:36:15.816Z,124
2018-05-29T00:36:28.273Z,124
2018-05-29T00:36:41.040Z,124
2018-05-29T00:36:53.440Z,124
2018-05-29T00:37:05.855Z,124
2018-05-29T00:37:18.281Z,124
2018-05-29T00:37:30.704Z,124
2018-05-29T00:37:43.123Z,124
2018-05-29T00:37:55.533Z,124
2018-05-29T00:38:07.957Z,124
2018-05-29T00:38:20.405Z,126
2018-05-29T00:38:32.821Z,126
2018-05-29T00:38:45.238Z,116
2018-05-29T00:38:57.660Z,116
2018-05-29T00:39:10.110Z,117
2018-05-29T00:39:22.520Z,108
2018-05-29T00:39:34.949Z,108
2018-05-29T00:39:47.422Z,108
2018-05-29T00:39:59.835Z,108
2018-05-29T00:40:12.290Z,123
2018-05-29T00:40:24.717Z,157
2018-05-29T00:40:37.131Z,157
2018-05-29T00:40:49.542Z,157
2018-05-29T00:41:02.111Z,157
2018-05-29T00:41:14.529Z,157
2018-05-29T00:41:26.963Z,146
2018-05-29T00:41:39.427Z,123
2018-05-29T00:41:51.861Z,98
2018-05-29T00:42:04.318Z,71
2018-05-29T00:42:16.765Z,92
2018-05-29T00:42:29.182Z,66
2018-05-29T00:42:41.615Z,91
2018-05-29T00:42:54.075Z,79
2018-05-29T00:43:06.496Z,49
2018-05-29T00:43:18.916Z,76
2018-05-29T00:43:31.343Z,86
2018-05-29T00:43:43.769Z,74
2018-05-29T00:43:56.174Z,75
2018-05-29T00:44:08.593Z,63
2018-05-29T00:44:21.029Z,99
2018-05-29T00:44:33.454Z,99
2018-05-29T00:44:45.915Z,99
2018-05-29T00:44:58.341Z,99
2018-05-29T00:45:10.783Z,99
2018-05-29T00:45:23.241Z,107
2018-05-29T00:45:35.656Z,167
2018-05-29T00:45:48.080Z,167
2018-05-29T00:46:00.512Z,26
2018-05-29T00:46:12.981Z,127
2018-05-29T00:46:25.406Z,69
2018-05-29T00:46:37.850Z,88
2018-05-29T00:46:50.287Z,88
2018-05-29T00:47:02.713Z,92
2018-05-29T00:47:15.127Z,91
2018-05-29T00:47:27.579Z,54
2018-05-29T00:47:40.016Z,79
2018-05-29T00:47:52.438Z,82
2018-05-29T00:48:04.846Z,83
2018-05-29T00:48:17.268Z,83
2018-05-29T00:48:29.965Z,83
2018-05-29T00:48:42.407Z,83
2018-05-29T00:48:54.843Z,86
2018-05-29T00:49:07.285Z,99
2018-05-29T00:49:19.708Z,99
2018-05-29T00:49:32.154Z,123
2018-05-29T00:49:44.559Z,121
2018-05-29T00:49:56.969Z,93
2018-05-29T00:50:09.561Z,78
2018-05-29T00:50:22.040Z,86
2018-05-29T00:50:34.455Z,103
2018-05-29T00:50:46.885Z,78
2018-05-29T00:50:59.299Z,137
2018-05-29T00:51:12.394Z,109
2018-05-29T00:51:24.831Z,109
2018-05-29T00:51:37.262Z,109
2018-05-29T00:51:49.699Z,127
2018-05-29T00:52:02.148Z,108
2018-05-29T00:52:14.561Z,91
2018-05-29T00:52:27.110Z,63
2018-05-29T00:52:39.545Z,63
2018-05-29T00:52:51.965Z,74
2018-05-29T00:53:04.395Z,70
2018-05-29T00:53:16.827Z,71
2018-05-29T00:53:29.315Z,101
2018-05-29T00:53:41.743Z,101
2018-05-29T00:53:54.221Z,101
2018-05-29T00:54:06.657Z,101
2018-05-29T00:54:19.102Z,101
2018-05-29T00:54:31.538Z,101
2018-05-29T00:54:43.957Z,80
2018-05-29T00:54:56.380Z,98
2018-05-29T00:55:08.795Z,74
2018-05-29T00:55:21.233Z,105
2018-05-29T00:55:33.680Z,105
2018-05-29T00:55:46.154Z,94
2018-05-29T00:55:58.569Z,94
2018-05-29T00:56:10.989Z,94
2018-05-29T00:56:23.465Z,94
2018-05-29T00:56:35.929Z,112
2018-05-29T00:56:48.349Z,88
2018-05-29T00:57:00.780Z,88
2018-05-29T00:57:13.195Z,74
2018-05-29T00:57:25.628Z,355
2018-05-29T00:57:38.059Z,24
2018-05-29T00:57:50.479Z,37
2018-05-29T00:58:03.094Z,85
2018-05-29T00:58:15.525Z,115
2018-05-29T00:58:27.940Z,107
2018-05-29T00:58:40.351Z,59
2018-05-29T00:58:52.795Z,90
2018-05-29T00:59:05.240Z,90
2018-05-29T00:59:17.671Z,90
2018-05-29T00:59:30.082Z,85
2018-05-29T00:59:42.515Z,85
2018-05-29T00:59:54.945Z,85
2018-05-29T01:00:07.397Z,86
2018-05-29T01:00:19.888Z,86
2018-05-29T01:00:32.349Z,86
2018-05-29T01:00:44.827Z,94
2018-05-29T01:00:57.276Z,68
2018-05-29T01:01:09.726Z,65
2018-05-29T01:01:22.181Z,59
2018-05-29T01:01:34.618Z,59
2018-05-29T01:01:47.057Z,59
2018-05-29T01:01:59.493Z,59
2018-05-29T01:02:11.939Z,59
2018-05-29T01:02:24.369Z,90
2018-05-29T01:02:36.818Z,103
2018-05-29T01:02:49.282Z,127
2018-05-29T01:03:01.779Z,127
2018-05-29T01:03:14.215Z,105
2018-05-29T01:03:26.631Z,105
2018-05-29T01:03:39.063Z,80
2018-05-29T01:03:51.506Z,76
2018-05-29T01:04:03.942Z,76
2018-05-29T01:04:16.351Z,99
2018-05-29T01:04:28.790Z,63
2018-05-29T01:04:41.208Z,84
2018-05-29T01:04:53.644Z,106
2018-05-29T01:05:06.104Z,134
2018-05-29T01:05:18.536Z,88
2018-05-29T01:05:30.978Z,116
2018-05-29T01:05:43.412Z,93
2018-05-29T01:05:55.936Z,80
2018-05-29T01:06:08.379Z,81
2018-05-29T01:06:20.810Z,94
2018-05-29T01:06:33.253Z,106
2018-05-29T01:06:45.665Z,103
2018-05-29T01:06:58.084Z,102
2018-05-29T01:07:10.483Z,90
2018-05-29T01:07:22.925Z,90
2018-05-29T01:07:35.344Z,128
2018-05-29T01:07:47.770Z,102
2018-05-29T01:08:00.196Z,87
2018-05-29T01:08:12.616Z,87
2018-05-29T01:08:25.068Z,87
2018-05-29T01:08:37.477Z,87
2018-05-29T01:08:49.917Z,87
2018-05-29T01:09:02.337Z,87
2018-05-29T01:09:14.738Z,87
2018-05-29T01:09:27.152Z,87
2018-05-29T01:09:39.566Z,140
2018-05-29T01:09:52.016Z,175
2018-05-29T01:10:04.458Z,175
2018-05-29T01:10:16.869Z,133
2018-05-29T01:10:29.298Z,133
2018-05-29T01:10:41.716Z,133
2018-05-29T01:10:54.171Z,133
2018-05-29T01:11:06.596Z,133
2018-05-29T01:11:19.040Z,133
2018-05-29T01:11:31.466Z,133
2018-05-29T01:11:43.879Z,116
2018-05-29T01:11:56.312Z,82
2018-05-29T01:12:08.764Z,38
2018-05-29T01:12:21.192Z,34
2018-05-29T01:12:33.715Z,36
2018-05-29T01:12:46.613Z,36
2018-05-29T01:12:59.053Z,36
2018-05-29T01:13:11.506Z,36
2018-05-29T01:13:23.934Z,36
2018-05-29T01:13:36.406Z,36
2018-05-29T01:13:48.860Z,36
2018-05-29T01:14:01.289Z,37
2018-05-29T01:14:13.760Z,40
2018-05-29T01:14:26.193Z,96
2018-05-29T01:14:38.606Z,101
2018-05-29T01:14:51.022Z,109
2018-05-29T01:15:03.442Z,131
2018-05-29T01:15:15.867Z,132
2018-05-29T01:15:28.297Z,132
2018-05-29T01:15:40.719Z,132
2018-05-29T01:15:53.268Z,132
2018-05-29T01:16:05.727Z,132
2018-05-29T01:16:18.173Z,117
2018-05-29T01:16:30.580Z,117
2018-05-29T01:16:42.996Z,80
2018-05-29T01:16:55.412Z,27
2018-05-29T01:17:07.881Z,95
2018-05-29T01:17:20.305Z,103
2018-05-29T01:17:32.730Z,73
2018-05-29T01:17:45.173Z,81
2018-05-29T01:17:57.646Z,76
2018-05-29T01:18:10.100Z,61
2018-05-29T01:18:22.583Z,63
2018-05-29T01:18:35.028Z,87
2018-05-29T01:18:47.486Z,80
2018-05-29T01:18:59.918Z,104
2018-05-29T01:19:12.339Z,105
2018-05-29T01:19:24.775Z,105
2018-05-29T01:19:37.196Z,105
2018-05-29T01:19:49.612Z,105
2018-05-29T01:20:02.043Z,101
2018-05-29T01:20:14.478Z,84
2018-05-29T01:20:26.900Z,80
2018-05-29T01:20:39.364Z,82
2018-05-29T01:20:51.791Z,103
2018-05-29T01:21:04.202Z,103
2018-05-29T01:21:16.634Z,126
2018-05-29T01:21:29.058Z,124
2018-05-29T01:21:41.488Z,115
2018-05-29T01:21:53.905Z,115
2018-05-29T01:22:06.338Z,103
2018-05-29T01:22:18.759Z,108
2018-05-29T01:22:31.199Z,108
2018-05-29T01:22:43.627Z,101
2018-05-29T01:22:56.056Z,78
2018-05-29T01:23:08.500Z,82
2018-05-29T01:23:20.959Z,84
2018-05-29T01:23:33.402Z,68
2018-05-29T01:23:45.839Z,50
2018-05-29T01:23:58.264Z,79
2018-05-29T01:24:10.673Z,107
2018-05-29T01:24:23.117Z,107
2018-05-29T01:24:35.566Z,107
2018-05-29T01:24:48.005Z,107
2018-05-29T01:25:00.424Z,107
2018-05-29T01:25:12.903Z,107
2018-05-29T01:25:25.374Z,107
2018-05-29T01:25:37.796Z,101
2018-05-29T01:25:50.219Z,159
2018-05-29T01:26:02.655Z,98
2018-05-29T01:26:15.067Z,66
2018-05-29T01:26:27.506Z,79
2018-05-29T01:26:39.917Z,98
2018-05-29T01:26:52.315Z,70
2018-05-29T01:27:04.727Z,49
2018-05-29T01:27:17.165Z,56
2018-05-29T01:27:29.589Z,57
2018-05-29T01:27:41.994Z,72
2018-05-29T01:27:54.403Z,72
2018-05-29T01:28:06.819Z,75
2018-05-29T01:28:19.266Z,75
2018-05-29T01:28:31.746Z,75
2018-05-29T01:28:44.190Z,128
2018-05-29T01:28:56.608Z,39
2018-05-29T01:29:09.102Z,39
2018-05-29T01:29:21.561Z,63
2018-05-29T01:29:33.982Z,92
2018-05-29T01:29:46.425Z,92
2018-05-29T01:29:58.891Z,92
2018-05-29T01:30:11.344Z,110
2018-05-29T01:30:23.774Z,101
2018-05-29T01:30:36.203Z,40
2018-05-29T01:30:48.628Z,64
2018-05-29T01:31:01.069Z,109
2018-05-29T01:31:13.499Z,98
2018-05-29T01:31:25.976Z,63
2018-05-29T01:31:38.399Z,57
2018-05-29T01:31:50.841Z,78
2018-05-29T01:32:03.261Z,81
2018-05-29T01:32:15.674Z,81
2018-05-29T01:32:28.100Z,97
2018-05-29T01:32:40.516Z,75
2018-05-29T01:32:52.959Z,75
2018-05-29T01:33:05.392Z,135
2018-05-29T01:33:18.008Z,129
2018-05-29T01:33:30.601Z,116
2018-05-29T01:33:43.065Z,46
2018-05-29T01:33:55.459Z,21
2018-05-29T01:34:07.909Z,81
2018-05-29T01:34:20.347Z,82
2018-05-29T01:34:32.770Z,74
2018-05-29T01:34:45.207Z,101
2018-05-29T01:34:57.625Z,118
2018-05-29T01:35:10.334Z,126
2018-05-29T01:35:22.803Z,126
2018-05-29T01:35:35.254Z,111
2018-05-29T01:35:47.698Z,101
2018-05-29T01:36:00.143Z,72
2018-05-29T01:36:12.580Z,72
2018-05-29T01:36:25.009Z,86
2018-05-29T01:36:37.427Z,113
2018-05-29T01:36:49.863Z,99
2018-05-29T01:37:02.277Z,69
2018-05-29T01:37:15.033Z,107
2018-05-29T01:37:27.453Z,107
2018-05-29T01:37:39.904Z,70
2018-05-29T01:37:52.314Z,84
2018-05-29T01:38:04.737Z,103
2018-05-29T01:38:17.160Z,103
2018-05-29T01:38:29.661Z,99
2018-05-29T01:38:42.103Z,95
2018-05-29T01:38:54.532Z,105
2018-05-29T01:39:06.974Z,110
2018-05-29T01:39:19.408Z,97
2018-05-29T01:39:31.828Z,100
2018-05-29T01:39:44.259Z,94
2018-05-29T01:39:56.693Z,60
2018-05-29T01:40:09.147Z,60
2018-05-29T01:40:21.593Z,60
2018-05-29T01:40:34.033Z,89
2018-05-29T01:40:46.457Z,81
2018-05-29T01:40:58.874Z,80
2018-05-29T01:41:11.429Z,80
2018-05-29T01:41:23.844Z,82
2018-05-29T01:41:36.284Z,82
2018-05-29T01:41:48.704Z,82
2018-05-29T01:42:01.160Z,82
2018-05-29T01:42:13.607Z,82
2018-05-29T01:42:26.054Z,82
2018-05-29T01:42:38.490Z,82
2018-05-29T01:42:50.893Z,82
2018-05-29T01:43:03.309Z,82
2018-05-29T01:43:15.753Z,82
2018-05-29T01:43:28.195Z,82
2018-05-29T01:43:40.604Z,98
2018-05-29T01:43:53.070Z,98
2018-05-29T01:44:05.513Z,119
2018-05-29T01:44:17.942Z,59
2018-05-29T01:44:30.386Z,62
2018-05-29T01:44:42.824Z,104
2018-05-29T01:44:55.267Z,115
2018-05-29T01:45:07.724Z,105
2018-05-29T01:45:20.151Z,101
2018-05-29T01:45:32.589Z,88
2018-05-29T01:45:45.055Z,88
2018-05-29T01:45:57.492Z,87
2018-05-29T01:46:09.939Z,69
2018-05-29T01:46:22.356Z,19
2018-05-29T01:46:34.774Z,57
2018-05-29T01:46:47.185Z,56
2018-05-29T01:46:59.596Z,76
2018-05-29T01:47:12.017Z,38
2018-05-29T01:47:24.433Z,37
2018-05-29T01:47:36.855Z,37
2018-05-29T01:47:49.273Z,37
2018-05-29T01:48:01.679Z,37
2018-05-29T01:48:14.123Z,38
2018-05-29T01:48:26.688Z,38
2018-05-29T01:48:39.128Z,57
2018-05-29T01:48:51.624Z,63
2018-05-29T01:49:04.062Z,93
2018-05-29T01:49:16.466Z,111
2018-05-29T01:49:28.901Z,96
2018-05-29T01:49:41.320Z,92
2018-05-29T01:49:53.742Z,92
2018-05-29T01:50:06.183Z,92
2018-05-29T01:50:18.819Z,92
2018-05-29T01:50:31.237Z,92
2018-05-29T01:50:43.674Z,92
2018-05-29T01:50:56.105Z,92
2018-05-29T01:51:08.531Z,99
2018-05-29T01:51:21.117Z,74
2018-05-29T01:51:33.521Z,83
2018-05-29T01:51:45.949Z,83
2018-05-29T01:51:58.359Z,57
2018-05-29T01:52:10.816Z,99
2018-05-29T01:52:23.246Z,98
2018-05-29T01:52:35.816Z,74
2018-05-29T01:52:48.226Z,67
2018-05-29T01:53:00.655Z,52
2018-05-29T01:53:13.121Z,52
2018-05-29T01:53:25.560Z,100
2018-05-29T01:53:37.989Z,103
2018-05-29T01:53:50.409Z,82
2018-05-29T01:54:02.852Z,83
2018-05-29T01:54:15.266Z,83
2018-05-29T01:54:27.729Z,92
2018-05-29T01:54:40.140Z,92
2018-05-29T01:54:52.591Z,92
2018-05-29T01:55:05.054Z,91
2018-05-29T01:55:17.465Z,71
2018-05-29T01:55:29.873Z,93
2018-05-29T01:55:42.267Z,105
2018-05-29T01:55:54.675Z,100
2018-05-29T01:56:07.100Z,96
2018-05-29T01:56:19.516Z,109
2018-05-29T01:56:31.928Z,91
2018-05-29T01:56:44.353Z,91
2018-05-29T01:56:56.839Z,93
2018-05-29T01:57:09.258Z,101
2018-05-29T01:57:21.670Z,107
2018-05-29T01:57:34.134Z,81
2018-05-29T01:57:46.553Z,94
2018-05-29T01:57:59.055Z,79
2018-05-29T01:58:11.495Z,81
2018-05-29T01:58:23.907Z,102
2018-05-29T01:58:36.337Z,84
2018-05-29T01:58:48.748Z,98
2018-05-29T01:59:01.191Z,98
2018-05-29T01:59:13.656Z,56
2018-05-29T01:59:26.062Z,109
2018-05-29T01:59:38.462Z,126
2018-05-29T01:59:50.898Z,115
2018-05-29T02:00:03.331Z,105
2018-05-29T02:00:15.814Z,76
2018-05-29T02:00:28.250Z,76
2018-05-29T02:00:40.753Z,77
2018-05-29T02:00:53.197Z,83
2018-05-29T02:01:05.668Z,83
2018-05-29T02:01:18.140Z,127
2018-05-29T02:01:30.599Z,127
2018-05-29T02:01:43.063Z,127
2018-05-29T02:01:55.483Z,127
2018-05-29T02:02:07.909Z,101
2018-05-29T02:02:20.337Z,94
2018-05-29T02:02:32.766Z,77
2018-05-29T02:02:45.189Z,69
2018-05-29T02:02:57.645Z,79
2018-05-29T02:03:10.119Z,79
2018-05-29T02:03:22.555Z,79
2018-05-29T02:03:34.975Z,79
2018-05-29T02:03:47.443Z,79
2018-05-29T02:03:59.896Z,107
2018-05-29T02:04:12.310Z,87
2018-05-29T02:04:25.345Z,71
2018-05-29T02:04:39.006Z,78
2018-05-29T02:04:51.527Z,78
2018-05-29T02:05:03.953Z,86
2018-05-29T02:05:16.418Z,67
2018-05-29T02:05:28.848Z,76
2018-05-29T02:05:41.282Z,71
2018-05-29T02:05:53.893Z,64
2018-05-29T02:06:06.303Z,75
2018-05-29T02:06:18.736Z,77
2018-05-29T02:06:31.161Z,122
2018-05-29T02:06:43.580Z,121
2018-05-29T02:06:55.992Z,136
2018-05-29T02:07:08.413Z,90
2018-05-29T02:07:20.852Z,102
2018-05-29T02:07:33.285Z,51
2018-05-29T02:07:45.695Z,77
2018-05-29T02:07:58.123Z,111
2018-05-29T02:08:10.548Z,71
2018-05-29T02:08:22.961Z,69
2018-05-29T02:08:35.374Z,75
2018-05-29T02:08:47.776Z,105
2018-05-29T02:09:00.206Z,82
2018-05-29T02:09:12.633Z,93
2018-05-29T02:09:25.082Z,97
2018-05-29T02:09:37.511Z,95
2018-05-29T02:09:49.978Z,91
2018-05-29T02:10:02.396Z,90
2018-05-29T02:10:14.848Z,134
2018-05-29T02:10:27.260Z,128
2018-05-29T02:10:39.689Z,128
2018-05-29T02:10:52.232Z,83
2018-05-29T02:11:04.671Z,78
2018-05-29T02:11:17.113Z,58
2018-05-29T02:11:29.552Z,69
2018-05-29T02:11:41.969Z,84
2018-05-29T02:11:54.385Z,109
2018-05-29T02:12:06.825Z,97
2018-05-29T02:12:19.272Z,84
2018-05-29T02:12:31.712Z,95
2018-05-29T02:12:44.158Z,96
2018-05-29T02:12:56.576Z,83
2018-05-29T02:13:08.998Z,78
2018-05-29T02:13:21.411Z,116
2018-05-29T02:13:33.831Z,109
2018-05-29T02:13:46.287Z,97
2018-05-29T02:13:58.726Z,101
2018-05-29T02:14:11.147Z,64
2018-05-29T02:14:23.555Z,69
2018-05-29T02:14:35.987Z,78
2018-05-29T02:14:48.412Z,105
2018-05-29T02:15:00.847Z,105
2018-05-29T02:15:13.299Z,105
2018-05-29T02:15:25.746Z,105
2018-05-29T02:15:38.190Z,105
2018-05-29T02:15:50.691Z,105
2018-05-29T02:16:03.101Z,105
2018-05-29T02:16:15.547Z,98
2018-05-29T02:16:28.015Z,101
2018-05-29T02:16:40.419Z,103
2018-05-29T02:16:52.861Z,56
2018-05-29T02:17:05.270Z,97
2018-05-29T02:17:17.682Z,88
2018-05-29T02:17:30.109Z,87
2018-05-29T02:17:42.523Z,111
2018-05-29T02:17:54.933Z,104
2018-05-29T02:18:07.354Z,98
2018-05-29T02:18:19.958Z,74
2018-05-29T02:18:32.379Z,146
2018-05-29T02:18:44.804Z,147
2018-05-29T02:18:57.260Z,105
2018-05-29T02:19:09.709Z,123
2018-05-29T02:19:22.132Z,123
2018-05-29T02:19:34.574Z,109
2018-05-29T02:19:46.968Z,164
2018-05-29T02:19:59.379Z,127
2018-05-29T02:20:11.800Z,94
2018-05-29T02:20:24.235Z,31
2018-05-29T02:20:36.675Z,61
2018-05-29T02:20:49.106Z,67
2018-05-29T02:21:01.541Z,71
2018-05-29T02:21:13.970Z,201
2018-05-29T02:21:26.469Z,198
2018-05-29T02:21:38.946Z,184
2018-05-29T02:21:51.388Z,176
2018-05-29T02:22:03.857Z,123
2018-05-29T02:22:16.298Z,74
2018-05-29T02:22:28.735Z,178
2018-05-29T02:22:41.158Z,26
2018-05-29T02:22:53.596Z,70
2018-05-29T02:23:06.022Z,92
2018-05-29T02:23:18.463Z,92
2018-05-29T02:23:30.881Z,142
2018-05-29T02:23:43.327Z,86
2018-05-29T02:23:55.733Z,109
2018-05-29T02:24:08.177Z,101
2018-05-29T02:24:20.612Z,98
2018-05-29T02:24:33.035Z,118
2018-05-29T02:24:45.431Z,140
2018-05-29T02:24:57.869Z,142
2018-05-29T02:25:10.279Z,146
2018-05-29T02:25:22.716Z,111
2018-05-29T02:25:35.128Z,128
2018-05-29T02:25:47.551Z,144
2018-05-29T02:25:59.999Z,119
2018-05-29T02:26:12.432Z,119
2018-05-29T02:26:24.850Z,74
2018-05-29T02:26:37.276Z,78
2018-05-29T02:26:49.698Z,111
2018-05-29T02:27:02.227Z,111
2018-05-29T02:27:14.659Z,28
2018-05-29T02:27:27.090Z,54
2018-05-29T02:27:39.532Z,16
2018-05-29T02:27:51.967Z,49
2018-05-29T02:28:04.400Z,49
2018-05-29T02:28:16.809Z,49
2018-05-29T02:28:29.230Z,49
2018-05-29T02:28:41.644Z,49
2018-05-29T02:28:54.070Z,49
2018-05-29T02:29:06.500Z,49
2018-05-29T02:29:18.940Z,52
2018-05-29T02:29:31.449Z,59
2018-05-29T02:29:43.861Z,59
2018-05-29T02:29:56.309Z,131
2018-05-29T02:30:08.785Z,131
2018-05-29T02:30:21.261Z,126
2018-05-29T02:30:33.733Z,97
2018-05-29T02:30:46.179Z,150
2018-05-29T02:30:58.623Z,131
2018-05-29T02:31:11.063Z,123
2018-05-29T02:31:23.510Z,102
2018-05-29T02:31:35.998Z,98
2018-05-29T02:31:48.436Z,130
2018-05-29T02:32:00.924Z,115
2018-05-29T02:32:13.356Z,121
2018-05-29T02:32:25.873Z,206
2018-05-29T02:32:38.299Z,197
2018-05-29T02:32:50.758Z,161
2018-05-29T02:33:03.203Z,147
2018-05-29T02:33:15.639Z,142
2018-05-29T02:33:28.092Z,90
2018-05-29T02:33:40.536Z,26
2018-05-29T02:33:52.962Z,72
2018-05-29T02:34:05.664Z,74
2018-05-29T02:34:18.104Z,73
2018-05-29T02:34:30.566Z,91
2018-05-29T02:34:43.029Z,91
2018-05-29T02:34:55.496Z,91
2018-05-29T02:35:08.065Z,91
2018-05-29T02:35:20.508Z,57
2018-05-29T02:35:32.965Z,57
2018-05-29T02:35:45.402Z,57
2018-05-29T02:35:57.836Z,42
2018-05-29T02:36:10.345Z,53
2018-05-29T02:36:22.762Z,53
2018-05-29T02:36:35.212Z,53
2018-05-29T02:36:47.630Z,53
2018-05-29T02:37:00.061Z,53
2018-05-29T02:37:12.482Z,54
2018-05-29T02:37:24.907Z,54
2018-05-29T02:37:37.336Z,57
2018-05-29T02:37:50.075Z,57
2018-05-29T02:38:02.565Z,57
2018-05-29T02:38:15.027Z,57
2018-05-29T02:38:27.487Z,71
2018-05-29T02:38:39.935Z,72
2018-05-29T02:38:52.360Z,72
2018-05-29T02:39:04.838Z,72
2018-05-29T02:39:17.272Z,360
2018-05-29T02:39:29.749Z,360
2018-05-29T02:39:42.194Z,360
2018-05-29T02:39:54.642Z,360
2018-05-29T02:40:07.115Z,360
2018-05-29T02:40:19.562Z,360
2018-05-29T02:40:32.013Z,360
2018-05-29T02:40:44.440Z,360
2018-05-29T02:40:56.896Z,360
2018-05-29T02:41:09.502Z,360
2018-05-29T02:41:21.935Z,360
2018-05-29T02:41:34.382Z,360
2018-05-29T02:41:46.833Z,360
2018-05-29T02:41:59.262Z,355
2018-05-29T02:42:11.725Z,302
2018-05-29T02:42:24.183Z,57
2018-05-29T02:42:36.630Z,91
2018-05-29T02:42:49.049Z,95
2018-05-29T02:43:01.474Z,172
2018-05-29T02:43:13.929Z,168
2018-05-29T02:43:26.360Z,167
2018-05-29T02:43:38.813Z,178
2018-05-29T02:43:51.277Z,178
2018-05-29T02:44:03.725Z,178
2018-05-29T02:44:16.170Z,132
2018-05-29T02:44:28.778Z,132
2018-05-29T02:44:41.227Z,132
2018-05-29T02:44:53.685Z,132
2018-05-29T02:45:06.156Z,36
2018-05-29T02:45:18.603Z,32
2018-05-29T02:45:31.027Z,32
2018-05-29T02:45:43.498Z,34
2018-05-29T02:45:55.941Z,34
2018-05-29T02:46:08.405Z,34
2018-05-29T02:46:20.842Z,34
2018-05-29T02:46:33.312Z,34
2018-05-29T02:46:45.743Z,34
2018-05-29T02:46:58.178Z,34
2018-05-29T02:47:10.709Z,34
2018-05-29T02:47:23.202Z,34
2018-05-29T02:47:35.641Z,55
2018-05-29T02:47:48.083Z,83
2018-05-29T02:48:00.542Z,112
2018-05-29T02:48:13.015Z,111
2018-05-29T02:48:25.575Z,110
2018-05-29T02:48:38.200Z,106
2018-05-29T02:48:50.645Z,91
2018-05-29T02:49:03.109Z,117
2018-05-29T02:49:15.542Z,71
2018-05-29T02:49:28.011Z,45
2018-05-29T02:49:40.444Z,121
2018-05-29T02:49:52.881Z,132
2018-05-29T02:50:05.339Z,105
2018-05-29T02:50:18.002Z,111
2018-05-29T02:50:30.446Z,116
2018-05-29T02:50:42.888Z,115
2018-05-29T02:50:55.332Z,115
2018-05-29T02:51:07.791Z,115
2018-05-29T02:51:20.245Z,115
2018-05-29T02:51:32.848Z,48
2018-05-29T02:51:45.298Z,48
2018-05-29T02:51:57.776Z,48
2018-05-29T02:52:10.210Z,48
2018-05-29T02:52:22.643Z,150
2018-05-29T02:52:35.201Z,129
2018-05-29T02:52:47.621Z,178
2018-05-29T02:53:00.035Z,178
2018-05-29T02:53:12.472Z,90
2018-05-29T02:53:24.875Z,71
2018-05-29T02:53:37.290Z,121
2018-05-29T02:53:49.752Z,81
2018-05-29T02:54:02.199Z,59
2018-05-29T02:54:14.611Z,59
2018-05-29T02:54:27.014Z,59
2018-05-29T02:54:39.449Z,155
2018-05-29T02:54:51.893Z,155
2018-05-29T02:55:04.310Z,144
2018-05-29T02:55:16.724Z,128